Time;durP1;ratioP1;P1;durP2;ratioP2;P2;SDS_P1;SDS_P2;PMS_P1;PMS_P2;Temp;Humidity;BMP_temperature;BMP_pressure;BME280_temperature;BME280_humidity;BME280_pressure;Samples;Min_cycle;Max_cycle;Signal;HPM_P1;HPM_P2
2022/12/16 00:01:21;;;;;;;427.40;295.60;;;179.70;2124.80;;;;;;4982675;28;20117;-61
2022/12/16 00:03:49;;;;;;;430.48;298.58;;;179.70;2252.80;;;;;;4973533;28;20050;-60
2022/12/16 00:06:15;;;;;;;437.33;301.48;;;180.10;2252.80;;;;;;4976945;28;20146;-60
2022/12/16 00:08:41;;;;;;;297.40;215.35;;;179.70;2252.80;;;;;;4979357;28;20026;-59
2022/12/16 00:11:08;;;;;;;329.55;233.85;;;179.90;2252.80;;;;;;4980926;28;20037;-60
2022/12/16 00:13:35;;;;;;;484.88;338.58;;;179.90;2252.80;;;;;;4976187;28;20035;-60
2022/12/16 00:16:09;;;;;;;338.17;238.55;;;179.90;2252.80;;;;;;4979681;28;20026;-60
2022/12/16 00:18:35;;;;;;;210.98;147.85;;;180.00;2252.80;;;;;;4976706;28;20023;-61
2022/12/16 00:21:01;;;;;;;204.65;139.85;;;180.10;2252.80;;;;;;4979416;28;20538;-61
2022/12/16 00:23:27;;;;;;;152.38;99.35;;;204.80;2252.80;;;;;;4980573;28;20015;-60
2022/12/16 00:25:53;;;;;;;152.63;105.35;;;205.10;2176.00;;;;;;4975915;28;20037;-60
2022/12/16 00:28:22;;;;;;;107.82;72.00;;;205.30;2252.80;;;;;;4980048;28;20034;-59
2022/12/16 00:30:50;;;;;;;148.50;100.68;;;205.50;2252.80;;;;;;4980626;28;20121;-60
2022/12/16 00:33:16;;;;;;;153.65;107.43;;;205.50;2252.80;;;;;;4979203;28;20365;-59
2022/12/16 00:35:43;;;;;;;116.03;74.55;;;205.60;2252.80;;;;;;4978974;28;20038;-61
2022/12/16 00:38:09;;;;;;;239.65;165.15;;;205.70;2252.80;;;;;;4980525;28;20023;-60
2022/12/16 00:40:35;;;;;;;272.25;177.88;;;205.60;2252.80;;;;;;4978754;28;20033;-60
2022/12/16 00:43:01;;;;;;;202.88;137.50;;;205.10;2252.80;;;;;;4979639;28;20057;-61
2022/12/16 00:45:27;;;;;;;213.98;147.55;;;205.20;2252.80;;;;;;4980399;28;20049;-60
2022/12/16 00:47:52;;;;;;;134.95;93.00;;;205.20;2252.80;;;;;;4978319;28;20470;-60
2022/12/16 00:50:19;;;;;;;241.30;170.15;;;205.30;2252.80;;;;;;4979753;28;20018;-60
2022/12/16 00:52:46;;;;;;;286.88;201.77;;;205.20;1945.60;;;;;;4980025;28;20529;-61
2022/12/16 00:55:13;;;;;;;287.77;202.93;;;204.80;2252.80;;;;;;4978431;28;20042;-60
2022/12/16 00:57:39;;;;;;;303.25;206.80;;;180.10;2252.80;;;;;;4979402;28;20065;-59
2022/12/16 01:00:08;;;;;;;289.05;197.10;;;180.10;2252.80;;;;;;4979922;28;20094;-60
2022/12/16 01:02:33;;;;;;;210.50;142.82;;;180.10;2252.80;;;;;;4975816;28;20051;-61
2022/12/16 01:04:59;;;;;;;263.45;183.13;;;204.80;2252.80;;;;;;4979704;28;20057;-59
2022/12/16 01:07:25;;;;;;;213.90;145.60;;;204.80;2252.80;;;;;;4979959;28;20442;-62
2022/12/16 01:09:51;;;;;;;217.65;146.07;;;204.80;2252.80;;;;;;4978326;28;20077;-61
2022/12/16 01:12:16;;;;;;;65.03;43.75;;;204.80;2252.80;;;;;;4980087;28;20358;-60
2022/12/16 01:14:42;;;;;;;41.42;26.13;;;205.20;2252.80;;;;;;4979682;28;20070;-60
2022/12/16 01:17:08;;;;;;;126.20;79.90;;;205.60;2252.80;;;;;;4979045;28;20046;-60
2022/12/16 01:19:33;;;;;;;113.90;73.75;;;205.50;2252.80;;;;;;4976331;28;20026;-62
2022/12/16 01:21:59;;;;;;;91.22;58.28;;;205.40;2252.80;;;;;;4979948;28;20090;-62
2022/12/16 01:24:25;;;;;;;68.68;45.10;;;205.60;2252.80;;;;;;4980378;28;20027;-60
2022/12/16 01:26:50;;;;;;;42.90;30.98;;;230.40;2252.80;;;;;;4978211;28;20026;-59
2022/12/16 01:29:16;;;;;;;39.88;25.25;;;230.60;2252.80;;;;;;4979612;28;20499;-61
2022/12/16 01:31:42;;;;;;;32.85;22.02;;;230.70;2252.80;;;;;;4979128;28;20030;-59
2022/12/16 01:34:08;;;;;;;33.28;22.20;;;230.80;2252.80;;;;;;4978200;28;20022;-60
2022/12/16 01:36:34;;;;;;;67.82;41.33;;;231.10;2252.80;;;;;;4980375;28;20042;-60
2022/12/16 01:38:59;;;;;;;81.90;56.45;;;231.00;2252.80;;;;;;4982384;28;20500;-60
2022/12/16 01:41:25;;;;;;;110.40;74.10;;;230.70;2252.80;;;;;;4981904;28;20477;-60
2022/12/16 01:43:51;;;;;;;119.97;82.60;;;205.70;2252.80;;;;;;4983321;28;20033;-61
2022/12/16 01:46:23;;;;;;;110.15;76.20;;;205.50;1920.00;;;;;;4981917;28;20500;-60
2022/12/16 01:48:57;;;;;;;119.68;80.50;;;205.40;2252.80;;;;;;4981435;28;20086;-61
2022/12/16 01:51:36;;;;;;;177.23;119.30;;;205.40;2252.80;;;;;;4981647;28;20026;-60
2022/12/16 01:54:29;;;;;;;219.10;150.77;;;205.30;2022.40;;;;;;4980901;28;20469;-59
2022/12/16 01:56:58;;;;;;;210.55;141.85;;;205.10;2252.80;;;;;;4978776;28;20034;-60
2022/12/16 01:59:27;;;;;;;170.57;117.72;;;204.90;2252.80;;;;;;4981301;28;20116;-60
2022/12/16 02:01:53;;;;;;;103.70;68.15;;;205.00;2252.80;;;;;;4982918;28;20026;-59
2022/12/16 02:04:19;;;;;;;117.10;80.18;;;205.10;2252.80;;;;;;4982161;28;20026;-60
2022/12/16 02:06:45;;;;;;;74.72;50.45;;;205.20;2252.80;;;;;;4981669;28;20192;-60
2022/12/16 02:09:14;;;;;;;107.68;74.97;;;205.40;2252.80;;;;;;4992721;28;20026;-60
2022/12/16 02:11:57;;;;;;;143.18;99.30;;;205.60;2252.80;;;;;;4993307;28;20022;-60
2022/12/16 02:14:38;;;;;;;179.38;119.78;;;205.50;2252.80;;;;;;4992790;28;20552;-60
2022/12/16 02:17:17;;;;;;;166.65;106.90;;;205.40;2252.80;;;;;;4992818;28;20038;-60
2022/12/16 02:20:13;;;;;;;121.53;76.63;;;205.60;2252.80;;;;;;4992652;28;20541;-60
2022/12/16 02:22:41;;;;;;;137.07;96.93;;;230.40;2252.80;;;;;;4992818;28;20042;-60
2022/12/16 02:25:44;;;;;;;139.18;96.22;;;205.50;2048.00;;;;;;4992816;28;20113;-59
2022/12/16 02:28:46;;;;;;;119.22;81.55;;;205.50;2252.80;;;;;;4992707;28;20066;-60
2022/12/16 02:31:33;;;;;;;102.05;72.15;;;205.40;2252.80;;;;;;4992638;28;20504;-60
2022/12/16 02:34:25;;;;;;;107.78;72.47;;;205.50;2252.80;;;;;;4992571;28;20429;-59
2022/12/16 02:36:59;;;;;;;78.88;52.63;;;205.60;2252.80;;;;;;4992365;28;20050;-59
2022/12/16 02:39:34;;;;;;;60.60;41.35;;;205.70;2252.80;;;;;;4992352;28;20018;-60
2022/12/16 02:42:41;;;;;;;57.50;39.85;;;230.60;2252.80;;;;;;4992680;28;20117;-60
2022/12/16 02:45:16;;;;;;;64.07;45.08;;;230.70;2252.80;;;;;;4913800;29;20032;-60
2022/12/16 02:47:43;;;;;;;59.50;41.35;;;230.80;2124.80;;;;;;4912705;29;20048;-61
2022/12/16 02:50:31;;;;;;;53.70;38.47;;;230.80;2124.80;;;;;;4912826;29;20068;-60
2022/12/16 02:52:58;;;;;;;55.90;38.47;;;230.80;2227.20;;;;;;4913376;29;20534;-60
2022/12/16 02:55:41;;;;;;;63.47;42.35;;;230.90;2252.80;;;;;;4912959;29;20102;-60
2022/12/16 02:58:29;;;;;;;59.90;44.83;;;230.90;2073.60;;;;;;4913041;29;20114;-60
2022/12/16 03:01:21;;;;;;;60.22;41.85;;;230.90;2048.00;;;;;;4907538;29;20040;-61
2022/12/16 03:04:00;;;;;;;79.15;51.47;;;230.90;1971.20;;;;;;4913122;29;20043;-60
2022/12/16 03:06:30;;;;;;;82.00;55.70;;;230.70;2201.60;;;;;;4912966;29;20048;-60
2022/12/16 03:09:00;;;;;;;105.00;71.95;;;230.70;2252.80;;;;;;4912760;29;20064;-60
2022/12/16 03:11:28;;;;;;;39.45;27.35;;;230.80;2252.80;;;;;;4912866;29;20036;-59
2022/12/16 03:13:55;;;;;;;62.03;45.30;;;231.00;2252.80;;;;;;4912707;29;20040;-60
2022/12/16 03:16:30;;;;;;;53.22;38.67;;;231.10;2252.80;;;;;;4912670;29;20135;-60
2022/12/16 03:19:01;;;;;;;53.60;37.33;;;230.90;1894.40;;;;;;4950664;28;20532;-60
2022/12/16 03:21:32;;;;;;;67.93;48.85;;;231.00;2176.00;;;;;;4991675;28;20030;-59
2022/12/16 03:24:01;;;;;;;57.88;40.00;;;230.90;2099.20;;;;;;4991504;28;20026;-60
2022/12/16 03:26:43;;;;;;;62.92;45.28;;;230.90;2252.80;;;;;;4991445;28;20026;-59
2022/12/16 03:29:37;;;;;;;43.58;30.15;;;231.00;2252.80;;;;;;4991279;28;20034;-60
2022/12/16 03:32:31;;;;;;;57.13;40.42;;;230.90;2252.80;;;;;;4991355;28;20054;-60
2022/12/16 03:35:20;;;;;;;56.97;40.00;;;230.90;2252.80;;;;;;4912130;29;20531;-60
2022/12/16 03:37:50;;;;;;;56.50;38.10;;;230.80;2252.80;;;;;;4906179;29;20028;-59
2022/12/16 03:40:16;;;;;;;72.55;48.10;;;230.80;2252.80;;;;;;4912453;29;20104;-60
2022/12/16 03:42:43;;;;;;;59.10;37.85;;;230.90;2252.80;;;;;;4912270;29;20493;-60
2022/12/16 03:45:15;;;;;;;63.95;45.00;;;230.90;2252.80;;;;;;4912404;29;20518;-60
2022/12/16 03:47:41;;;;;;;50.95;36.28;;;230.70;2252.80;;;;;;4912165;29;20619;-60
2022/12/16 03:50:08;;;;;;;39.03;24.65;;;230.60;2252.80;;;;;;4912396;29;20115;-60
2022/12/16 03:52:34;;;;;;;31.52;21.45;;;230.80;2252.80;;;;;;4912065;29;20411;-60
2022/12/16 03:55:00;;;;;;;42.53;27.98;;;231.00;2252.80;;;;;;4912335;29;20042;-59
2022/12/16 03:57:26;;;;;;;39.75;27.15;;;231.30;2252.80;;;;;;4911722;29;20160;-59
2022/12/16 03:59:51;;;;;;;39.10;23.85;;;256.30;2252.80;;;;;;4911453;29;20139;-60
2022/12/16 04:02:17;;;;;;;52.67;36.05;;;256.60;2252.80;;;;;;4912177;29;20082;-59
2022/12/16 04:04:43;;;;;;;35.75;23.65;;;281.60;2278.40;;;;;;4911929;29;20509;-60
2022/12/16 04:07:21;;;;;;;30.23;20.50;;;281.80;2278.40;;;;;;4912023;29;20024;-60
2022/12/16 04:09:50;;;;;;;33.00;20.00;;;282.10;2278.40;;;;;;4912169;29;20036;-60
2022/12/16 04:26:04;;;;;;;36.58;24.65;;;307.50;2304.00;;;;;;4990770;28;20045;-60
2022/12/16 04:28:30;;;;;;;25.00;17.20;;;307.50;2304.00;;;;;;4990564;28;20121;-60
2022/12/16 04:30:56;;;;;;;23.65;14.27;;;307.60;2304.00;;;;;;4990667;28;20054;-60
